sensor_id;sensor_type;location;lat;lon;timestamp;temperature;humidity
5647;DHT22;2845;48.626;9.362;2023-05-23T00:01:52;15.40;99.90
5647;DHT22;2845;48.626;9.362;2023-05-23T00:04:30;16.30;99.90
5647;DHT22;2845;48.626;9.362;2023-05-23T00:07:04;15.90;99.90
5647;DHT22;2845;48.626;9.362;2023-05-23T00:09:38;15.30;99.90
5647;DHT22;2845;48.626;9.362;2023-05-23T00:12:14;15.40;99.90
5647;DHT22;2845;48.626;9.362;2023-05-23T00:14:48;15.40;99.90
5647;DHT22;2845;48.626;9.362;2023-05-23T00:17:25;15.90;99.90
5647;DHT22;2845;48.626;9.362;2023-05-23T00:19:59;15.70;99.90
5647;DHT22;2845;48.626;9.362;2023-05-23T00:22:33;15.80;99.90
5647;DHT22;2845;48.626;9.362;2023-05-23T00:25:08;16.20;99.90
5647;DHT22;2845;48.626;9.362;2023-05-23T00:27:44;15.80;99.90
5647;DHT22;2845;48.626;9.362;2023-05-23T00:30:18;15.90;99.90
5647;DHT22;2845;48.626;9.362;2023-05-23T00:32:52;15.80;99.90
5647;DHT22;2845;48.626;9.362;2023-05-23T00:35:26;15.90;99.90
5647;DHT22;2845;48.626;9.362;2023-05-23T00:38:01;17.10;99.90
5647;DHT22;2845;48.626;9.362;2023-05-23T00:40:35;15.90;99.90
5647;DHT22;2845;48.626;9.362;2023-05-23T00:43:10;16.00;99.90
5647;DHT22;2845;48.626;9.362;2023-05-23T00:45:46;16.00;99.90
5647;DHT22;2845;48.626;9.362;2023-05-23T00:48:21;16.10;99.90
5647;DHT22;2845;48.626;9.362;2023-05-23T00:50:56;16.10;99.90
5647;DHT22;2845;48.626;9.362;2023-05-23T00:53:30;18.60;99.90
5647;DHT22;2845;48.626;9.362;2023-05-23T00:56:05;16.10;99.90
5647;DHT22;2845;48.626;9.362;2023-05-23T00:58:40;16.10;99.90
5647;DHT22;2845;48.626;9.362;2023-05-23T01:01:15;16.20;99.90
5647;DHT22;2845;48.626;9.362;2023-05-23T01:03:50;16.20;99.90
5647;DHT22;2845;48.626;9.362;2023-05-23T01:06:25;16.30;99.90
5647;DHT22;2845;48.626;9.362;2023-05-23T01:09:02;16.20;99.90
5647;DHT22;2845;48.626;9.362;2023-05-23T01:11:42;16.20;99.90
5647;DHT22;2845;48.626;9.362;2023-05-23T01:14:28;16.30;99.90
5647;DHT22;2845;48.626;9.362;2023-05-23T01:17:12;16.30;99.90
5647;DHT22;2845;48.626;9.362;2023-05-23T01:20:01;16.30;99.90
5647;DHT22;2845;48.626;9.362;2023-05-23T01:22:51;16.30;99.90
5647;DHT22;2845;48.626;9.362;2023-05-23T01:25:46;16.30;99.90
5647;DHT22;2845;48.626;9.362;2023-05-23T01:28:36;16.30;99.90
5647;DHT22;2845;48.626;9.362;2023-05-23T01:31:11;19.30;99.90
5647;DHT22;2845;48.626;9.362;2023-05-23T01:33:48;17.10;99.90
5647;DHT22;2845;48.626;9.362;2023-05-23T01:36:25;16.30;99.90
5647;DHT22;2845;48.626;9.362;2023-05-23T01:38:59;16.30;99.90
5647;DHT22;2845;48.626;9.362;2023-05-23T01:41:33;16.30;99.90
5647;DHT22;2845;48.626;9.362;2023-05-23T01:44:09;16.10;99.90
5647;DHT22;2845;48.626;9.362;2023-05-23T01:46:43;16.00;99.90
5647;DHT22;2845;48.626;9.362;2023-05-23T01:49:20;16.10;99.90
5647;DHT22;2845;48.626;9.362;2023-05-23T01:51:55;16.10;99.90
5647;DHT22;2845;48.626;9.362;2023-05-23T01:54:29;16.00;99.90
5647;DHT22;2845;48.626;9.362;2023-05-23T01:57:04;16.10;99.90
5647;DHT22;2845;48.626;9.362;2023-05-23T01:59:40;16.10;99.90
5647;DHT22;2845;48.626;9.362;2023-05-23T02:02:14;16.20;99.90
5647;DHT22;2845;48.626;9.362;2023-05-23T02:04:48;16.10;99.90
5647;DHT22;2845;48.626;9.362;2023-05-23T02:07:22;16.10;99.90
5647;DHT22;2845;48.626;9.362;2023-05-23T02:09:57;16.20;99.90
5647;DHT22;2845;48.626;9.362;2023-05-23T02:12:31;16.20;99.90
5647;DHT22;2845;48.626;9.362;2023-05-23T02:15:07;16.20;99.90
5647;DHT22;2845;48.626;9.362;2023-05-23T02:17:42;16.20;99.90
5647;DHT22;2845;48.626;9.362;2023-05-23T02:20:16;16.10;99.90
5647;DHT22;2845;48.626;9.362;2023-05-23T02:22:51;16.00;99.90
5647;DHT22;2845;48.626;9.362;2023-05-23T02:25:25;17.10;99.90
5647;DHT22;2845;48.626;9.362;2023-05-23T02:28:00;16.00;99.90
5647;DHT22;2845;48.626;9.362;2023-05-23T02:30:35;15.90;99.90
5647;DHT22;2845;48.626;9.362;2023-05-23T02:33:09;15.80;99.90
5647;DHT22;2845;48.626;9.362;2023-05-23T02:35:43;16.00;99.90
5647;DHT22;2845;48.626;9.362;2023-05-23T02:38:17;15.60;99.90
5647;DHT22;2845;48.626;9.362;2023-05-23T02:40:52;17.10;99.90
5647;DHT22;2845;48.626;9.362;2023-05-23T02:43:28;15.50;99.90
5647;DHT22;2845;48.626;9.362;2023-05-23T02:46:03;15.50;99.90
5647;DHT22;2845;48.626;9.362;2023-05-23T02:48:38;15.40;99.90
5647;DHT22;2845;48.626;9.362;2023-05-23T02:51:12;16.00;99.90
5647;DHT22;2845;48.626;9.362;2023-05-23T02:53:46;15.50;99.90
5647;DHT22;2845;48.626;9.362;2023-05-23T02:56:20;15.50;99.90
5647;DHT22;2845;48.626;9.362;2023-05-23T02:58:55;15.30;99.90
5647;DHT22;2845;48.626;9.362;2023-05-23T03:01:30;15.20;99.90
5647;DHT22;2845;48.626;9.362;2023-05-23T03:04:04;15.10;99.90
5647;DHT22;2845;48.626;9.362;2023-05-23T03:06:38;15.20;99.90
5647;DHT22;2845;48.626;9.362;2023-05-23T03:09:14;15.10;99.90
5647;DHT22;2845;48.626;9.362;2023-05-23T03:11:49;15.10;99.90
5647;DHT22;2845;48.626;9.362;2023-05-23T03:14:23;15.10;99.90
5647;DHT22;2845;48.626;9.362;2023-05-23T03:16:59;15.40;99.90
5647;DHT22;2845;48.626;9.362;2023-05-23T03:19:35;15.20;99.90
5647;DHT22;2845;48.626;9.362;2023-05-23T03:22:09;15.30;99.90
5647;DHT22;2845;48.626;9.362;2023-05-23T03:24:44;15.30;99.90
5647;DHT22;2845;48.626;9.362;2023-05-23T03:27:18;15.40;99.90
5647;DHT22;2845;48.626;9.362;2023-05-23T03:29:52;15.40;99.90
5647;DHT22;2845;48.626;9.362;2023-05-23T03:32:28;15.50;99.90
5647;DHT22;2845;48.626;9.362;2023-05-23T03:35:02;15.60;99.90
5647;DHT22;2845;48.626;9.362;2023-05-23T03:37:36;15.60;99.90
5647;DHT22;2845;48.626;9.362;2023-05-23T03:40:11;15.70;99.90
5647;DHT22;2845;48.626;9.362;2023-05-23T03:42:47;15.70;99.90
5647;DHT22;2845;48.626;9.362;2023-05-23T03:45:21;15.80;99.90
5647;DHT22;2845;48.626;9.362;2023-05-23T03:47:57;16.90;99.90
5647;DHT22;2845;48.626;9.362;2023-05-23T03:50:31;15.90;99.90
5647;DHT22;2845;48.626;9.362;2023-05-23T03:53:05;15.90;99.90
5647;DHT22;2845;48.626;9.362;2023-05-23T03:55:39;16.60;99.90
5647;DHT22;2845;48.626;9.362;2023-05-23T03:58:15;15.90;99.90
5647;DHT22;2845;48.626;9.362;2023-05-23T04:00:49;17.40;99.90
5647;DHT22;2845;48.626;9.362;2023-05-23T04:03:26;16.00;99.90
5647;DHT22;2845;48.626;9.362;2023-05-23T04:06:05;16.20;99.90
5647;DHT22;2845;48.626;9.362;2023-05-23T04:08:39;16.10;99.90
5647;DHT22;2845;48.626;9.362;2023-05-23T04:11:15;16.20;99.90
5647;DHT22;2845;48.626;9.362;2023-05-23T04:13:49;16.20;99.90
5647;DHT22;2845;48.626;9.362;2023-05-23T04:16:25;16.20;99.90
5647;DHT22;2845;48.626;9.362;2023-05-23T04:19:01;16.30;99.90
5647;DHT22;2845;48.626;9.362;2023-05-23T04:21:37;16.30;99.90
5647;DHT22;2845;48.626;9.362;2023-05-23T04:24:11;16.70;99.90
5647;DHT22;2845;48.626;9.362;2023-05-23T04:26:46;16.40;99.90
5647;DHT22;2845;48.626;9.362;2023-05-23T04:29:20;16.40;99.90
5647;DHT22;2845;48.626;9.362;2023-05-23T04:31:54;16.50;99.90
5647;DHT22;2845;48.626;9.362;2023-05-23T04:34:29;16.50;99.90
5647;DHT22;2845;48.626;9.362;2023-05-23T04:37:05;16.50;99.90
5647;DHT22;2845;48.626;9.362;2023-05-23T04:39:40;16.60;99.90
5647;DHT22;2845;48.626;9.362;2023-05-23T04:42:15;16.60;99.90
5647;DHT22;2845;48.626;9.362;2023-05-23T04:44:49;16.60;99.90
5647;DHT22;2845;48.626;9.362;2023-05-23T04:47:24;16.70;99.90
5647;DHT22;2845;48.626;9.362;2023-05-23T04:50:01;16.70;99.90
5647;DHT22;2845;48.626;9.362;2023-05-23T04:52:37;17.90;99.90
5647;DHT22;2845;48.626;9.362;2023-05-23T04:55:11;16.80;99.90
5647;DHT22;2845;48.626;9.362;2023-05-23T04:57:46;17.50;99.90
5647;DHT22;2845;48.626;9.362;2023-05-23T05:00:20;18.50;99.90
5647;DHT22;2845;48.626;9.362;2023-05-23T05:02:54;16.90;99.90
5647;DHT22;2845;48.626;9.362;2023-05-23T05:05:29;17.00;99.90
5647;DHT22;2845;48.626;9.362;2023-05-23T05:08:04;17.00;99.90
5647;DHT22;2845;48.626;9.362;2023-05-23T05:10:39;17.10;99.90
5647;DHT22;2845;48.626;9.362;2023-05-23T05:13:14;17.10;99.90
5647;DHT22;2845;48.626;9.362;2023-05-23T05:15:48;18.60;99.90
5647;DHT22;2845;48.626;9.362;2023-05-23T05:18:25;17.40;99.90
5647;DHT22;2845;48.626;9.362;2023-05-23T05:21:01;17.10;99.90
5647;DHT22;2845;48.626;9.362;2023-05-23T05:23:35;17.10;99.90
5647;DHT22;2845;48.626;9.362;2023-05-23T05:26:09;17.10;99.90
5647;DHT22;2845;48.626;9.362;2023-05-23T05:28:43;17.00;99.90
5647;DHT22;2845;48.626;9.362;2023-05-23T05:31:18;17.10;99.90
5647;DHT22;2845;48.626;9.362;2023-05-23T05:33:52;16.50;99.90
5647;DHT22;2845;48.626;9.362;2023-05-23T05:36:28;20.40;99.90
5647;DHT22;2845;48.626;9.362;2023-05-23T05:39:03;20.40;99.90
5647;DHT22;2845;48.626;9.362;2023-05-23T05:41:38;17.20;99.90
5647;DHT22;2845;48.626;9.362;2023-05-23T05:44:13;17.30;99.90
5647;DHT22;2845;48.626;9.362;2023-05-23T05:46:47;17.30;99.90
5647;DHT22;2845;48.626;9.362;2023-05-23T05:49:21;17.80;99.90
5647;DHT22;2845;48.626;9.362;2023-05-23T05:51:57;17.60;99.90
5647;DHT22;2845;48.626;9.362;2023-05-23T05:54:31;20.90;99.90
5647;DHT22;2845;48.626;9.362;2023-05-23T05:57:05;18.00;99.90
5647;DHT22;2845;48.626;9.362;2023-05-23T05:59:39;19.20;99.90
5647;DHT22;2845;48.626;9.362;2023-05-23T06:02:13;18.40;99.60
5647;DHT22;2845;48.626;9.362;2023-05-23T06:04:47;18.50;99.50
5647;DHT22;2845;48.626;9.362;2023-05-23T06:07:23;18.60;99.30
5647;DHT22;2845;48.626;9.362;2023-05-23T06:09:57;21.30;99.90
5647;DHT22;2845;48.626;9.362;2023-05-23T06:12:31;18.60;99.40
5647;DHT22;2845;48.626;9.362;2023-05-23T06:15:06;18.50;99.60
5647;DHT22;2845;48.626;9.362;2023-05-23T06:17:41;18.50;99.60
5647;DHT22;2845;48.626;9.362;2023-05-23T06:20:17;18.60;99.40
5647;DHT22;2845;48.626;9.362;2023-05-23T06:22:52;18.60;99.30
5647;DHT22;2845;48.626;9.362;2023-05-23T06:25:26;18.90;99.40
5647;DHT22;2845;48.626;9.362;2023-05-23T06:28:01;19.10;98.90
5647;DHT22;2845;48.626;9.362;2023-05-23T06:30:35;19.30;98.80
5647;DHT22;2845;48.626;9.362;2023-05-23T06:33:10;19.40;98.10
5647;DHT22;2845;48.626;9.362;2023-05-23T06:35:45;19.50;98.30
5647;DHT22;2845;48.626;9.362;2023-05-23T06:38:20;21.20;98.80
5647;DHT22;2845;48.626;9.362;2023-05-23T06:40:54;19.60;97.90
5647;DHT22;2845;48.626;9.362;2023-05-23T06:43:29;20.50;98.10
5647;DHT22;2845;48.626;9.362;2023-05-23T06:46:03;19.50;98.30
5647;DHT22;2845;48.626;9.362;2023-05-23T06:48:38;19.40;97.80
5647;DHT22;2845;48.626;9.362;2023-05-23T06:51:12;19.40;97.80
5647;DHT22;2845;48.626;9.362;2023-05-23T06:53:48;19.40;97.80
5647;DHT22;2845;48.626;9.362;2023-05-23T06:56:23;19.40;97.90
5647;DHT22;2845;48.626;9.362;2023-05-23T06:58:57;19.30;98.20
5647;DHT22;2845;48.626;9.362;2023-05-23T07:01:32;21.20;98.50
5647;DHT22;2845;48.626;9.362;2023-05-23T07:04:06;19.20;98.20
5647;DHT22;2845;48.626;9.362;2023-05-23T07:06:40;19.30;98.30
5647;DHT22;2845;48.626;9.362;2023-05-23T07:09:16;19.10;98.30
5647;DHT22;2845;48.626;9.362;2023-05-23T07:11:50;19.20;98.40
5647;DHT22;2845;48.626;9.362;2023-05-23T07:14:24;19.10;98.30
5647;DHT22;2845;48.626;9.362;2023-05-23T07:16:58;19.00;98.40
5647;DHT22;2845;48.626;9.362;2023-05-23T07:19:33;19.00;98.60
5647;DHT22;2845;48.626;9.362;2023-05-23T07:22:07;18.90;98.60
5647;DHT22;2845;48.626;9.362;2023-05-23T07:24:42;18.90;98.50
5647;DHT22;2845;48.626;9.362;2023-05-23T07:27:17;18.80;98.60
5647;DHT22;2845;48.626;9.362;2023-05-23T07:29:52;18.80;98.60
5647;DHT22;2845;48.626;9.362;2023-05-23T07:32:26;18.80;98.50
5647;DHT22;2845;48.626;9.362;2023-05-23T07:35:01;18.90;98.60
5647;DHT22;2845;48.626;9.362;2023-05-23T07:37:35;18.70;98.60
5647;DHT22;2845;48.626;9.362;2023-05-23T07:40:11;18.60;98.70
5647;DHT22;2845;48.626;9.362;2023-05-23T07:42:45;18.50;98.90
5647;DHT22;2845;48.626;9.362;2023-05-23T07:45:19;18.50;99.00
5647;DHT22;2845;48.626;9.362;2023-05-23T07:47:53;18.50;99.00
5647;DHT22;2845;48.626;9.362;2023-05-23T07:50:28;18.50;98.80
5647;DHT22;2845;48.626;9.362;2023-05-23T07:53:03;18.50;99.00
5647;DHT22;2845;48.626;9.362;2023-05-23T07:55:40;18.60;98.90
5647;DHT22;2845;48.626;9.362;2023-05-23T07:58:14;18.90;99.10
5647;DHT22;2845;48.626;9.362;2023-05-23T08:00:49;18.60;99.00
5647;DHT22;2845;48.626;9.362;2023-05-23T08:03:25;18.40;98.80
5647;DHT22;2845;48.626;9.362;2023-05-23T08:05:59;18.90;98.80
5647;DHT22;2845;48.626;9.362;2023-05-23T08:08:33;18.50;98.50
5647;DHT22;2845;48.626;9.362;2023-05-23T08:11:10;18.50;98.70
5647;DHT22;2845;48.626;9.362;2023-05-23T08:13:46;18.40;98.60
5647;DHT22;2845;48.626;9.362;2023-05-23T08:16:20;18.50;98.30
5647;DHT22;2845;48.626;9.362;2023-05-23T08:18:54;19.90;98.40
5647;DHT22;2845;48.626;9.362;2023-05-23T08:21:29;18.60;97.50
5647;DHT22;2845;48.626;9.362;2023-05-23T08:24:03;18.60;97.40
5647;DHT22;2845;48.626;9.362;2023-05-23T08:26:39;18.70;97.40
5647;DHT22;2845;48.626;9.362;2023-05-23T08:29:13;18.80;97.40
5647;DHT22;2845;48.626;9.362;2023-05-23T08:31:47;18.80;97.10
5647;DHT22;2845;48.626;9.362;2023-05-23T08:34:22;18.80;97.10
5647;DHT22;2845;48.626;9.362;2023-05-23T08:36:56;18.70;97.20
5647;DHT22;2845;48.626;9.362;2023-05-23T08:39:30;18.80;97.20
5647;DHT22;2845;48.626;9.362;2023-05-23T08:42:06;19.00;97.30
5647;DHT22;2845;48.626;9.362;2023-05-23T08:44:40;18.80;97.30
5647;DHT22;2845;48.626;9.362;2023-05-23T08:47:15;18.70;97.30
5647;DHT22;2845;48.626;9.362;2023-05-23T08:49:50;21.70;98.00
5647;DHT22;2845;48.626;9.362;2023-05-23T08:52:26;18.70;97.30
5647;DHT22;2845;48.626;9.362;2023-05-23T08:55:03;18.70;97.30
5647;DHT22;2845;48.626;9.362;2023-05-23T08:57:39;18.60;97.00
5647;DHT22;2845;48.626;9.362;2023-05-23T09:00:16;18.50;97.00
5647;DHT22;2845;48.626;9.362;2023-05-23T09:02:50;18.50;96.70
5647;DHT22;2845;48.626;9.362;2023-05-23T09:05:26;18.50;96.80
5647;DHT22;2845;48.626;9.362;2023-05-23T09:08:00;18.50;96.60
5647;DHT22;2845;48.626;9.362;2023-05-23T09:10:34;18.60;96.70
5647;DHT22;2845;48.626;9.362;2023-05-23T09:13:10;18.70;96.30
5647;DHT22;2845;48.626;9.362;2023-05-23T09:16:01;18.60;96.20
5647;DHT22;2845;48.626;9.362;2023-05-23T09:18:37;18.70;96.40
5647;DHT22;2845;48.626;9.362;2023-05-23T09:21:12;18.80;96.10
5647;DHT22;2845;48.626;9.362;2023-05-23T09:23:47;19.00;95.90
5647;DHT22;2845;48.626;9.362;2023-05-23T09:26:21;18.90;95.60
5647;DHT22;2845;48.626;9.362;2023-05-23T09:28:57;19.00;95.70
5647;DHT22;2845;48.626;9.362;2023-05-23T09:31:32;18.90;95.60
5647;DHT22;2845;48.626;9.362;2023-05-23T09:34:06;19.00;95.40
5647;DHT22;2845;48.626;9.362;2023-05-23T09:36:42;18.90;95.40
5647;DHT22;2845;48.626;9.362;2023-05-23T09:39:16;19.00;95.50
5647;DHT22;2845;48.626;9.362;2023-05-23T09:41:51;19.00;95.30
5647;DHT22;2845;48.626;9.362;2023-05-23T09:44:26;18.90;95.50
5647;DHT22;2845;48.626;9.362;2023-05-23T09:47:05;18.90;95.30
5647;DHT22;2845;48.626;9.362;2023-05-23T09:49:39;18.80;95.50
5647;DHT22;2845;48.626;9.362;2023-05-23T09:52:14;16.40;95.00
5647;DHT22;2845;48.626;9.362;2023-05-23T09:54:48;21.60;96.00
5647;DHT22;2845;48.626;9.362;2023-05-23T09:57:22;19.60;95.60
5647;DHT22;2845;48.626;9.362;2023-05-23T10:00:00;18.50;95.50
5647;DHT22;2845;48.626;9.362;2023-05-23T10:02:54;18.50;95.50
5647;DHT22;2845;48.626;9.362;2023-05-23T10:05:35;18.50;95.70
5647;DHT22;2845;48.626;9.362;2023-05-23T10:08:15;22.10;96.30
5647;DHT22;2845;48.626;9.362;2023-05-23T10:14:23;18.50;95.60
5647;DHT22;2845;48.626;9.362;2023-05-23T10:17:06;19.10;95.70
5647;DHT22;2845;48.626;9.362;2023-05-23T10:19:49;18.70;95.60
5647;DHT22;2845;48.626;9.362;2023-05-23T10:22:25;18.50;95.50
5647;DHT22;2845;48.626;9.362;2023-05-23T10:25:00;18.60;95.50
5647;DHT22;2845;48.626;9.362;2023-05-23T10:27:36;20.30;95.80
5647;DHT22;2845;48.626;9.362;2023-05-23T10:30:12;18.70;95.20
5647;DHT22;2845;48.626;9.362;2023-05-23T10:32:48;18.80;95.00
5647;DHT22;2845;48.626;9.362;2023-05-23T10:35:29;18.90;95.00
5647;DHT22;2845;48.626;9.362;2023-05-23T10:38:21;19.20;95.00
5647;DHT22;2845;48.626;9.362;2023-05-23T10:41:08;19.20;94.80
5647;DHT22;2845;48.626;9.362;2023-05-23T10:43:54;19.40;94.80
5647;DHT22;2845;48.626;9.362;2023-05-23T10:46:50;19.50;94.40
5647;DHT22;2845;48.626;9.362;2023-05-23T10:49:38;19.60;94.20
5647;DHT22;2845;48.626;9.362;2023-05-23T10:52:15;19.60;94.10
5647;DHT22;2845;48.626;9.362;2023-05-23T10:54:51;19.80;93.90
5647;DHT22;2845;48.626;9.362;2023-05-23T10:57:25;20.10;93.70
5647;DHT22;2845;48.626;9.362;2023-05-23T11:00:00;20.60;93.30
5647;DHT22;2845;48.626;9.362;2023-05-23T11:02:35;20.70;93.10
5647;DHT22;2845;48.626;9.362;2023-05-23T11:05:21;20.90;92.80
5647;DHT22;2845;48.626;9.362;2023-05-23T11:08:08;20.80;92.70
5647;DHT22;2845;48.626;9.362;2023-05-23T11:10:58;20.90;92.50
5647;DHT22;2845;48.626;9.362;2023-05-23T11:14:03;20.80;92.60
5647;DHT22;2845;48.626;9.362;2023-05-23T11:16:40;20.60;92.60
5647;DHT22;2845;48.626;9.362;2023-05-23T11:19:22;20.50;92.70
5647;DHT22;2845;48.626;9.362;2023-05-23T11:22:02;20.40;92.40
5647;DHT22;2845;48.626;9.362;2023-05-23T11:24:47;20.40;92.50
5647;DHT22;2845;48.626;9.362;2023-05-23T11:27:27;20.30;92.60
5647;DHT22;2845;48.626;9.362;2023-05-23T11:30:05;20.50;92.80
5647;DHT22;2845;48.626;9.362;2023-05-23T11:32:41;18.60;92.20
5647;DHT22;2845;48.626;9.362;2023-05-23T11:35:17;21.80;92.60
5647;DHT22;2845;48.626;9.362;2023-05-23T11:37:54;20.80;92.30
5647;DHT22;2845;48.626;9.362;2023-05-23T11:40:30;21.20;92.30
5647;DHT22;2845;48.626;9.362;2023-05-23T11:43:07;20.90;92.10
5647;DHT22;2845;48.626;9.362;2023-05-23T11:45:42;20.80;92.30
5647;DHT22;2845;48.626;9.362;2023-05-23T11:48:18;24.20;92.70
5647;DHT22;2845;48.626;9.362;2023-05-23T11:50:53;21.00;92.10
5647;DHT22;2845;48.626;9.362;2023-05-23T11:53:29;20.80;92.10
5647;DHT22;2845;48.626;9.362;2023-05-23T11:56:03;20.70;92.00
5647;DHT22;2845;48.626;9.362;2023-05-23T11:58:38;20.70;92.00
5647;DHT22;2845;48.626;9.362;2023-05-23T12:01:13;20.80;91.70
5647;DHT22;2845;48.626;9.362;2023-05-23T12:03:49;20.80;91.50
5647;DHT22;2845;48.626;9.362;2023-05-23T12:06:24;20.90;91.70
5647;DHT22;2845;48.626;9.362;2023-05-23T12:09:00;21.10;91.70
5647;DHT22;2845;48.626;9.362;2023-05-23T12:11:34;21.40;91.30
5647;DHT22;2845;48.626;9.362;2023-05-23T12:14:13;21.70;91.20
5647;DHT22;2845;48.626;9.362;2023-05-23T12:16:48;22.10;90.30
5647;DHT22;2845;48.626;9.362;2023-05-23T12:19:25;22.00;90.30
5647;DHT22;2845;48.626;9.362;2023-05-23T12:22:04;22.10;90.30
5647;DHT22;2845;48.626;9.362;2023-05-23T12:24:45;22.10;90.50
5647;DHT22;2845;48.626;9.362;2023-05-23T12:27:26;22.10;90.40
5647;DHT22;2845;48.626;9.362;2023-05-23T12:30:05;22.10;89.10
5647;DHT22;2845;48.626;9.362;2023-05-23T12:32:42;22.10;88.80
5647;DHT22;2845;48.626;9.362;2023-05-23T12:35:16;22.10;89.10
5647;DHT22;2845;48.626;9.362;2023-05-23T12:37:51;22.20;89.30
5647;DHT22;2845;48.626;9.362;2023-05-23T12:40:27;22.80;88.90
5647;DHT22;2845;48.626;9.362;2023-05-23T12:43:02;23.00;87.90
5647;DHT22;2845;48.626;9.362;2023-05-23T12:45:36;23.10;88.40
5647;DHT22;2845;48.626;9.362;2023-05-23T12:48:10;23.00;87.20
5647;DHT22;2845;48.626;9.362;2023-05-23T12:50:45;23.60;87.90
5647;DHT22;2845;48.626;9.362;2023-05-23T12:53:19;23.00;87.30
5647;DHT22;2845;48.626;9.362;2023-05-23T12:55:58;22.90;86.90
5647;DHT22;2845;48.626;9.362;2023-05-23T12:58:32;23.20;87.20
5647;DHT22;2845;48.626;9.362;2023-05-23T13:01:06;22.90;87.00
5647;DHT22;2845;48.626;9.362;2023-05-23T13:03:41;23.00;87.20
5647;DHT22;2845;48.626;9.362;2023-05-23T13:06:15;23.10;85.80
5647;DHT22;2845;48.626;9.362;2023-05-23T13:08:49;24.20;87.00
5647;DHT22;2845;48.626;9.362;2023-05-23T13:11:25;23.50;86.50
5647;DHT22;2845;48.626;9.362;2023-05-23T13:13:59;22.80;86.50
5647;DHT22;2845;48.626;9.362;2023-05-23T13:16:34;23.00;85.90
5647;DHT22;2845;48.626;9.362;2023-05-23T13:19:10;23.90;86.80
5647;DHT22;2845;48.626;9.362;2023-05-23T13:21:45;23.10;86.80
5647;DHT22;2845;48.626;9.362;2023-05-23T13:24:21;23.40;84.60
5647;DHT22;2845;48.626;9.362;2023-05-23T13:26:57;24.40;84.60
5647;DHT22;2845;48.626;9.362;2023-05-23T13:29:31;23.40;84.00
5647;DHT22;2845;48.626;9.362;2023-05-23T13:32:06;23.30;84.50
5647;DHT22;2845;48.626;9.362;2023-05-23T13:34:41;23.30;84.20
5647;DHT22;2845;48.626;9.362;2023-05-23T13:37:15;23.20;84.90
5647;DHT22;2845;48.626;9.362;2023-05-23T13:39:49;23.00;83.90
5647;DHT22;2845;48.626;9.362;2023-05-23T13:42:25;24.70;85.80
5647;DHT22;2845;48.626;9.362;2023-05-23T13:44:59;22.50;85.60
5647;DHT22;2845;48.626;9.362;2023-05-23T13:47:33;22.30;85.90
5647;DHT22;2845;48.626;9.362;2023-05-23T13:50:09;24.40;87.20
5647;DHT22;2845;48.626;9.362;2023-05-23T13:52:43;22.30;86.30
5647;DHT22;2845;48.626;9.362;2023-05-23T13:55:21;22.50;86.10
5647;DHT22;2845;48.626;9.362;2023-05-23T13:57:56;22.80;85.50
5647;DHT22;2845;48.626;9.362;2023-05-23T14:00:30;22.60;83.90
5647;DHT22;2845;48.626;9.362;2023-05-23T14:03:05;22.50;84.60
5647;DHT22;2845;48.626;9.362;2023-05-23T14:05:40;24.10;85.60
5647;DHT22;2845;48.626;9.362;2023-05-23T14:08:14;22.30;84.50
5647;DHT22;2845;48.626;9.362;2023-05-23T14:10:48;22.40;86.00
5647;DHT22;2845;48.626;9.362;2023-05-23T14:13:24;23.90;86.10
5647;DHT22;2845;48.626;9.362;2023-05-23T14:15:58;22.40;85.60
5647;DHT22;2845;48.626;9.362;2023-05-23T14:18:32;22.30;86.30
5647;DHT22;2845;48.626;9.362;2023-05-23T14:21:06;22.80;86.40
5647;DHT22;2845;48.626;9.362;2023-05-23T14:23:40;22.00;87.00
5647;DHT22;2845;48.626;9.362;2023-05-23T14:26:14;21.90;87.10
5647;DHT22;2845;48.626;9.362;2023-05-23T14:28:50;21.80;88.20
5647;DHT22;2845;48.626;9.362;2023-05-23T14:31:24;21.70;87.90
5647;DHT22;2845;48.626;9.362;2023-05-23T14:33:58;21.80;88.10
5647;DHT22;2845;48.626;9.362;2023-05-23T14:36:33;21.80;88.50
5647;DHT22;2845;48.626;9.362;2023-05-23T14:39:08;21.90;87.50
5647;DHT22;2845;48.626;9.362;2023-05-23T14:41:42;22.70;87.90
5647;DHT22;2845;48.626;9.362;2023-05-23T14:44:19;21.50;87.60
5647;DHT22;2845;48.626;9.362;2023-05-23T14:46:54;22.00;88.90
5647;DHT22;2845;48.626;9.362;2023-05-23T14:49:28;21.30;88.30
5647;DHT22;2845;48.626;9.362;2023-05-23T14:52:02;21.30;88.70
5647;DHT22;2845;48.626;9.362;2023-05-23T14:54:37;21.30;88.30
5647;DHT22;2845;48.626;9.362;2023-05-23T14:57:12;21.30;88.20
5647;DHT22;2845;48.626;9.362;2023-05-23T14:59:48;21.40;88.30
5647;DHT22;2845;48.626;9.362;2023-05-23T15:02:22;21.50;88.10
5647;DHT22;2845;48.626;9.362;2023-05-23T15:04:56;21.80;87.40
5647;DHT22;2845;48.626;9.362;2023-05-23T15:07:31;22.10;87.90
5647;DHT22;2845;48.626;9.362;2023-05-23T15:10:06;22.40;87.40
5647;DHT22;2845;48.626;9.362;2023-05-23T15:12:41;21.90;87.70
5647;DHT22;2845;48.626;9.362;2023-05-23T15:15:16;19.00;85.80
5647;DHT22;2845;48.626;9.362;2023-05-23T15:17:54;22.40;86.90
5647;DHT22;2845;48.626;9.362;2023-05-23T15:20:28;22.70;86.20
5647;DHT22;2845;48.626;9.362;2023-05-23T15:23:03;22.70;86.40
5647;DHT22;2845;48.626;9.362;2023-05-23T15:25:37;22.50;87.00
5647;DHT22;2845;48.626;9.362;2023-05-23T15:28:21;22.40;86.90
5647;DHT22;2845;48.626;9.362;2023-05-23T15:30:57;22.30;86.60
5647;DHT22;2845;48.626;9.362;2023-05-23T15:33:31;22.10;86.60
5647;DHT22;2845;48.626;9.362;2023-05-23T15:36:05;22.00;87.40
5647;DHT22;2845;48.626;9.362;2023-05-23T15:38:40;21.30;88.20
5647;DHT22;2845;48.626;9.362;2023-05-23T15:41:15;21.10;88.50
5647;DHT22;2845;48.626;9.362;2023-05-23T15:43:50;20.90;88.90
5647;DHT22;2845;48.626;9.362;2023-05-23T15:46:26;20.70;89.40
5647;DHT22;2845;48.626;9.362;2023-05-23T15:49:00;20.60;88.50
5647;DHT22;2845;48.626;9.362;2023-05-23T15:51:53;22.60;88.90
5647;DHT22;2845;48.626;9.362;2023-05-23T15:54:27;20.50;89.20
5647;DHT22;2845;48.626;9.362;2023-05-23T15:57:01;21.60;89.50
5647;DHT22;2845;48.626;9.362;2023-05-23T15:59:36;20.50;88.70
5647;DHT22;2845;48.626;9.362;2023-05-23T16:02:12;20.70;88.90
5647;DHT22;2845;48.626;9.362;2023-05-23T16:04:47;20.90;89.20
5647;DHT22;2845;48.626;9.362;2023-05-23T16:07:22;22.70;88.70
5647;DHT22;2845;48.626;9.362;2023-05-23T16:09:56;21.10;87.60
5647;DHT22;2845;48.626;9.362;2023-05-23T16:12:30;21.30;87.60
5647;DHT22;2845;48.626;9.362;2023-05-23T16:15:05;21.40;87.80
5647;DHT22;2845;48.626;9.362;2023-05-23T16:17:41;21.40;88.10
5647;DHT22;2845;48.626;9.362;2023-05-23T16:20:15;21.50;88.10
5647;DHT22;2845;48.626;9.362;2023-05-23T16:22:49;21.40;87.60
5647;DHT22;2845;48.626;9.362;2023-05-23T16:25:23;22.00;87.80
5647;DHT22;2845;48.626;9.362;2023-05-23T16:27:57;24.20;89.80
5647;DHT22;2845;48.626;9.362;2023-05-23T16:30:32;21.50;88.40
5647;DHT22;2845;48.626;9.362;2023-05-23T16:33:07;21.40;87.30
5647;DHT22;2845;48.626;9.362;2023-05-23T16:35:41;21.70;88.00
5647;DHT22;2845;48.626;9.362;2023-05-23T16:38:15;21.40;86.80
5647;DHT22;2845;48.626;9.362;2023-05-23T16:40:50;21.40;87.00
5647;DHT22;2845;48.626;9.362;2023-05-23T16:43:24;22.00;87.40
5647;DHT22;2845;48.626;9.362;2023-05-23T16:45:59;21.50;87.30
5647;DHT22;2845;48.626;9.362;2023-05-23T16:48:34;21.60;87.30
5647;DHT22;2845;48.626;9.362;2023-05-23T16:51:08;21.60;86.70
5647;DHT22;2845;48.626;9.362;2023-05-23T16:53:43;21.60;87.30
5647;DHT22;2845;48.626;9.362;2023-05-23T16:56:17;21.60;87.20
5647;DHT22;2845;48.626;9.362;2023-05-23T16:58:51;21.60;86.40
5647;DHT22;2845;48.626;9.362;2023-05-23T17:01:25;24.70;88.20